Anzahl Datensätze: 280
min. Temperatur: 5.7 °C
max. Temperatur: 18.1 °C
max. Windgeschwindigkeit: 8.5 km/h
Niederschlagsumme: 0.2 mm
| Datum |
Zeit |
Temp °C |
Feuchte % |
Taupunkt °C |
Luftdruck hPa |
Wind km/h |
Windrichtung |
Strahlung w/m² |
Niederschlag mm |
|---|---|---|---|---|---|---|---|---|---|
| 27.02.2026 | 00:04 | 6.8 | 93 | 5.7 | 1021.2 | 0.0 | SSO | 0 | 0.0 |
| 27.02.2026 | 00:09 | 6.6 | 93 | 5.5 | 1021.2 | 0.0 | SSO | 0 | 0.0 |
| 27.02.2026 | 00:14 | 6.5 | 93 | 5.4 | 1021.1 | 0.0 | SSO | 0 | 0.0 |
| 27.02.2026 | 00:19 | 6.3 | 93 | 5.3 | 1021.1 | 0.0 | SSO | 0 | 0.0 |
| 27.02.2026 | 00:24 | 6.3 | 93 | 5.3 | 1021.1 | 0.0 | SSO | 0 | 0.0 |
| 27.02.2026 | 00:29 | 6.2 | 93 | 5.2 | 1021.1 | 0.0 | SSO | 0 | 0.0 |
| 27.02.2026 | 00:34 | 6.1 | 93 | 5.1 | 1021.1 | 0.0 | SSO | 0 | 0.0 |
| 27.02.2026 | 00:39 | 6.1 | 93 | 5.1 | 1021.0 | 0.4 | SSO | 0 | 0.0 |
| 27.02.2026 | 00:44 | 6.1 | 93 | 5.1 | 1021.0 | 0.0 | SSO | 0 | 0.0 |
| 27.02.2026 | 00:49 | 6.0 | 93 | 5.0 | 1020.9 | 0.0 | SSO | 0 | 0.0 |
| 27.02.2026 | 00:54 | 6.0 | 93 | 5.0 | 1020.9 | 0.0 | SSO | 0 | 0.0 |
| 27.02.2026 | 00:59 | 5.9 | 93 | 4.9 | 1020.8 | 0.0 | SSO | 0 | 0.0 |
| 27.02.2026 | 01:04 | 5.8 | 93 | 4.8 | 1020.8 | 0.0 | SSO | 0 | 0.0 |
| 27.02.2026 | 01:09 | 5.8 | 93 | 4.8 | 1020.8 | 0.0 | SSO | 0 | 0.0 |
| 27.02.2026 | 01:14 | 5.7 | 93 | 4.7 | 1020.8 | 0.0 | SSO | 0 | 0.0 |
| 27.02.2026 | 01:19 | 5.8 | 93 | 4.8 | 1020.7 | 0.0 | SSO | 0 | 0.0 |
| 27.02.2026 | 01:25 | 5.9 | 93 | 4.9 | 1020.6 | 0.0 | SSO | 0 | 0.0 |
| 27.02.2026 | 01:30 | 6.0 | 93 | 5.0 | 1020.6 | 0.0 | SSO | 0 | 0.0 |
| 27.02.2026 | 01:35 | 6.0 | 93 | 5.0 | 1020.5 | 0.0 | SSO | 0 | 0.0 |
| 27.02.2026 | 01:40 | 6.0 | 93 | 5.0 | 1020.5 | 0.0 | SSO | 0 | 0.0 |
| 27.02.2026 | 01:45 | 6.0 | 93 | 5.0 | 1020.5 | 0.0 | SSO | 0 | 0.0 |
| 27.02.2026 | 01:50 | 6.0 | 93 | 5.0 | 1020.4 | 0.4 | SSO | 0 | 0.0 |
| 27.02.2026 | 01:55 | 6.1 | 93 | 5.1 | 1020.4 | 0.0 | SSO | 0 | 0.0 |
| 27.02.2026 | 02:00 | 6.2 | 94 | 5.3 | 1020.4 | 0.0 | SSO | 0 | 0.0 |
| 27.02.2026 | 02:05 | 6.2 | 94 | 5.3 | 1020.4 | 0.0 | SSO | 0 | 0.0 |
| 27.02.2026 | 02:10 | 6.2 | 94 | 5.3 | 1020.3 | 0.0 | SSO | 0 | 0.0 |
| 27.02.2026 | 02:15 | 6.1 | 94 | 5.2 | 1020.3 | 0.0 | SSO | 0 | 0.0 |
| 27.02.2026 | 02:20 | 6.2 | 94 | 5.3 | 1020.3 | 0.4 | SSO | 0 | 0.0 |
| 27.02.2026 | 02:25 | 6.2 | 94 | 5.3 | 1020.3 | 0.4 | SSO | 0 | 0.0 |
| 27.02.2026 | 02:30 | 6.3 | 94 | 5.4 | 1020.3 | 0.4 | SSO | 0 | 0.0 |
| 27.02.2026 | 02:35 | 6.4 | 94 | 5.5 | 1020.2 | 0.4 | SSO | 0 | 0.0 |
| 27.02.2026 | 02:40 | 6.8 | 94 | 5.9 | 1020.2 | 0.0 | SO | 0 | 0.0 |
| 27.02.2026 | 02:45 | 7.1 | 94 | 6.2 | 1020.0 | 0.0 | SO | 0 | 0.2 |
| 27.02.2026 | 02:50 | 7.3 | 94 | 6.4 | 1020.0 | 0.0 | SSO | 0 | 0.2 |
| 27.02.2026 | 02:55 | 7.4 | 94 | 6.5 | 1019.9 | 0.4 | SO | 0 | 0.2 |
| 27.02.2026 | 03:00 | 7.6 | 94 | 6.7 | 1019.8 | 0.9 | SO | 0 | 0.2 |
| 27.02.2026 | 03:05 | 7.8 | 94 | 6.9 | 1019.8 | 0.9 | ONO | 0 | 0.2 |
| 27.02.2026 | 03:10 | 7.9 | 94 | 7.0 | 1019.8 | 0.4 | SO | 0 | 0.2 |
| 27.02.2026 | 03:15 | 8.0 | 94 | 7.1 | 1019.8 | 0.9 | OSO | 0 | 0.2 |
| 27.02.2026 | 03:20 | 8.1 | 94 | 7.2 | 1019.7 | 0.9 | SO | 0 | 0.2 |
| 27.02.2026 | 03:25 | 8.2 | 94 | 7.3 | 1019.6 | 0.9 | SO | 0 | 0.2 |
| 27.02.2026 | 03:30 | 8.2 | 94 | 7.3 | 1019.6 | 0.4 | O | 0 | 0.2 |
| 27.02.2026 | 03:35 | 8.3 | 94 | 7.4 | 1019.5 | 0.0 | SSW | 0 | 0.2 |
| 27.02.2026 | 03:40 | 8.4 | 94 | 7.5 | 1019.5 | 0.4 | OSO | 0 | 0.2 |
| 27.02.2026 | 03:45 | 8.3 | 94 | 7.4 | 1019.5 | 0.0 | SO | 0 | 0.2 |
| 27.02.2026 | 03:50 | 8.3 | 94 | 7.4 | 1019.4 | 0.0 | SO | 0 | 0.2 |
| 27.02.2026 | 03:55 | 8.3 | 94 | 7.4 | 1019.4 | 0.0 | SO | 0 | 0.2 |
| 27.02.2026 | 04:00 | 8.3 | 94 | 7.4 | 1019.4 | 0.4 | SO | 0 | 0.2 |
| 27.02.2026 | 04:05 | 8.2 | 94 | 7.3 | 1019.3 | 0.4 | SO | 0 | 0.2 |
| 27.02.2026 | 04:10 | 8.1 | 94 | 7.2 | 1019.3 | 0.0 | SO | 0 | 0.2 |
| 27.02.2026 | 04:15 | 8.0 | 94 | 7.1 | 1019.4 | 0.0 | SO | 0 | 0.2 |
| 27.02.2026 | 04:21 | 7.8 | 94 | 6.9 | 1019.3 | 0.0 | SO | 0 | 0.2 |
| 27.02.2026 | 04:26 | 7.5 | 94 | 6.6 | 1019.3 | 0.0 | SO | 0 | 0.2 |
| 27.02.2026 | 04:31 | 7.3 | 94 | 6.4 | 1019.3 | 0.0 | SO | 0 | 0.2 |
| 27.02.2026 | 04:36 | 7.1 | 94 | 6.2 | 1019.2 | 0.4 | SO | 0 | 0.2 |
| 27.02.2026 | 04:41 | 7.1 | 94 | 6.2 | 1019.3 | 0.0 | SO | 0 | 0.2 |
| 27.02.2026 | 04:46 | 7.0 | 94 | 6.1 | 1019.3 | 0.0 | SO | 0 | 0.2 |
| 27.02.2026 | 04:51 | 6.9 | 94 | 6.0 | 1019.3 | 0.4 | SO | 0 | 0.2 |
| 27.02.2026 | 04:56 | 6.9 | 94 | 6.0 | 1019.3 | 0.0 | SO | 0 | 0.2 |
| 27.02.2026 | 05:01 | 7.1 | 94 | 6.2 | 1019.3 | 0.0 | SO | 0 | 0.2 |
| 27.02.2026 | 05:06 | 7.3 | 94 | 6.4 | 1019.2 | 0.0 | SO | 0 | 0.2 |
| 27.02.2026 | 05:11 | 7.3 | 94 | 6.4 | 1019.2 | 0.0 | SO | 0 | 0.2 |
| 27.02.2026 | 05:16 | 7.4 | 94 | 6.5 | 1019.2 | 0.9 | SO | 0 | 0.2 |
| 27.02.2026 | 05:21 | 7.5 | 94 | 6.6 | 1019.1 | 0.0 | SO | 0 | 0.2 |
| 27.02.2026 | 05:26 | 7.8 | 94 | 6.9 | 1019.1 | 0.9 | SO | 0 | 0.2 |
| 27.02.2026 | 05:31 | 8.0 | 94 | 7.1 | 1019.1 | 0.4 | SSW | 0 | 0.2 |
| 27.02.2026 | 05:36 | 8.2 | 94 | 7.3 | 1019.0 | 0.4 | ONO | 0 | 0.2 |
| 27.02.2026 | 05:41 | 8.2 | 94 | 7.3 | 1018.9 | 0.0 | OSO | 0 | 0.2 |
| 27.02.2026 | 05:46 | 8.1 | 94 | 7.2 | 1018.9 | 0.9 | OSO | 0 | 0.2 |
| 27.02.2026 | 05:51 | 8.1 | 94 | 7.2 | 1018.9 | 0.4 | S | 0 | 0.2 |
| 27.02.2026 | 05:56 | 8.1 | 94 | 7.2 | 1018.9 | 0.4 | SO | 0 | 0.2 |
| 27.02.2026 | 06:01 | 8.0 | 94 | 7.1 | 1018.9 | 0.9 | S | 0 | 0.2 |
| 27.02.2026 | 06:06 | 8.0 | 94 | 7.1 | 1018.9 | 0.0 | SO | 0 | 0.2 |
| 27.02.2026 | 06:11 | 8.0 | 94 | 7.1 | 1018.8 | 0.4 | SO | 0 | 0.2 |
| 27.02.2026 | 06:16 | 8.0 | 94 | 7.1 | 1018.8 | 0.4 | S | 0 | 0.2 |
| 27.02.2026 | 06:21 | 8.0 | 94 | 7.1 | 1018.8 | 0.0 | SO | 0 | 0.2 |
| 27.02.2026 | 06:26 | 7.9 | 94 | 7.0 | 1018.8 | 0.4 | O | 0 | 0.2 |
| 27.02.2026 | 06:31 | 7.9 | 94 | 7.0 | 1018.8 | 0.4 | SO | 0 | 0.2 |
| 27.02.2026 | 06:36 | 7.8 | 94 | 6.9 | 1018.9 | 0.4 | OSO | 0 | 0.2 |
| 27.02.2026 | 06:41 | 7.8 | 94 | 6.9 | 1018.9 | 0.9 | S | 0 | 0.2 |
| 27.02.2026 | 06:46 | 7.8 | 94 | 6.9 | 1019.0 | 0.0 | S | 0 | 0.2 |
| 27.02.2026 | 06:51 | 7.8 | 94 | 6.9 | 1019.0 | 0.9 | S | 0 | 0.2 |
| 27.02.2026 | 06:56 | 7.6 | 94 | 6.7 | 1019.0 | 0.9 | S | 0 | 0.2 |
| 27.02.2026 | 07:02 | 7.5 | 94 | 6.6 | 1019.0 | 0.0 | S | 0 | 0.2 |
| 27.02.2026 | 07:07 | 7.5 | 94 | 6.6 | 1018.9 | 0.0 | SO | 0 | 0.2 |
| 27.02.2026 | 07:12 | 7.5 | 94 | 6.6 | 1018.8 | 0.4 | SO | 0 | 0.2 |
| 27.02.2026 | 07:17 | 7.5 | 94 | 6.6 | 1018.8 | 0.4 | O | 0 | 0.2 |
| 27.02.2026 | 07:22 | 7.5 | 94 | 6.6 | 1018.8 | 0.9 | SO | 0 | 0.2 |
| 27.02.2026 | 07:27 | 7.5 | 94 | 6.6 | 1018.7 | 0.4 | OSO | 5 | 0.2 |
| 27.02.2026 | 07:32 | 7.5 | 94 | 6.6 | 1018.7 | 0.4 | OSO | 7 | 0.2 |
| 27.02.2026 | 07:37 | 7.5 | 94 | 6.6 | 1018.7 | 0.4 | S | 11 | 0.2 |
| 27.02.2026 | 07:42 | 7.5 | 94 | 6.6 | 1018.7 | 0.9 | S | 14 | 0.2 |
| 27.02.2026 | 07:47 | 7.5 | 94 | 6.6 | 1018.8 | 0.0 | S | 19 | 0.2 |
| 27.02.2026 | 07:52 | 7.4 | 94 | 6.5 | 1018.8 | 0.0 | S | 23 | 0.2 |
| 27.02.2026 | 07:57 | 7.4 | 94 | 6.5 | 1018.8 | 0.0 | S | 26 | 0.2 |
| 27.02.2026 | 08:02 | 7.4 | 94 | 6.5 | 1018.8 | 0.4 | S | 30 | 0.2 |
| 27.02.2026 | 08:07 | 7.4 | 94 | 6.5 | 1018.9 | 0.0 | S | 33 | 0.2 |
| 27.02.2026 | 08:12 | 7.4 | 94 | 6.5 | 1018.9 | 0.9 | SSO | 44 | 0.2 |
| 27.02.2026 | 08:17 | 7.5 | 94 | 6.6 | 1018.9 | 0.0 | O | 69 | 0.2 |
| 27.02.2026 | 08:22 | 7.6 | 94 | 6.7 | 1018.8 | 0.4 | OSO | 81 | 0.2 |
| 27.02.2026 | 08:27 | 7.8 | 94 | 6.9 | 1018.8 | 0.9 | SO | 91 | 0.2 |
| 27.02.2026 | 08:32 | 7.9 | 94 | 7.0 | 1018.7 | 0.0 | SSO | 104 | 0.2 |
| 27.02.2026 | 08:37 | 8.0 | 94 | 7.1 | 1018.8 | 0.9 | SSO | 116 | 0.2 |
| 27.02.2026 | 08:42 | 8.1 | 94 | 7.2 | 1018.8 | 0.0 | O | 130 | 0.2 |
| 27.02.2026 | 08:47 | 8.2 | 94 | 7.3 | 1018.7 | 0.9 | SSW | 142 | 0.2 |
| 27.02.2026 | 08:52 | 8.3 | 94 | 7.4 | 1018.7 | 0.4 | S | 155 | 0.2 |
| 27.02.2026 | 08:57 | 8.5 | 94 | 7.6 | 1018.6 | 1.3 | S | 169 | 0.2 |
| 27.02.2026 | 09:02 | 8.6 | 94 | 7.7 | 1018.6 | 0.9 | O | 179 | 0.2 |
| 27.02.2026 | 09:07 | 8.8 | 94 | 7.9 | 1018.6 | 0.4 | SO | 193 | 0.2 |
| 27.02.2026 | 09:12 | 8.9 | 94 | 8.0 | 1018.5 | 0.9 | NO | 206 | 0.2 |
| 27.02.2026 | 09:17 | 9.0 | 94 | 8.1 | 1018.5 | 0.4 | SSO | 218 | 0.2 |
| 27.02.2026 | 09:22 | 9.1 | 94 | 8.2 | 1018.4 | 0.9 | SO | 230 | 0.2 |
| 27.02.2026 | 09:27 | 9.3 | 94 | 8.4 | 1018.5 | 0.9 | SO | 243 | 0.2 |
| 27.02.2026 | 09:32 | 9.5 | 94 | 8.6 | 1018.5 | 3.1 | OSO | 253 | 0.2 |
| 27.02.2026 | 09:37 | 9.6 | 94 | 8.7 | 1018.5 | 1.3 | SO | 264 | 0.2 |
| 27.02.2026 | 09:43 | 9.8 | 94 | 8.9 | 1018.5 | 0.0 | O | 276 | 0.2 |
| 27.02.2026 | 09:48 | 9.9 | 94 | 9.0 | 1018.5 | 0.9 | S | 285 | 0.2 |
| 27.02.2026 | 09:53 | 10.0 | 94 | 9.1 | 1018.4 | 0.9 | SO | 297 | 0.2 |
| 27.02.2026 | 09:58 | 10.2 | 94 | 9.3 | 1018.4 | 0.9 | NO | 299 | 0.2 |
| 27.02.2026 | 10:03 | 10.3 | 93 | 9.2 | 1018.4 | 0.9 | ONO | 299 | 0.2 |
| 27.02.2026 | 10:08 | 10.5 | 93 | 9.4 | 1018.4 | 2.2 | SSO | 325 | 0.2 |
| 27.02.2026 | 10:13 | 10.5 | 93 | 9.4 | 1018.4 | 1.3 | SO | 338 | 0.2 |
| 27.02.2026 | 10:18 | 10.7 | 93 | 9.6 | 1018.4 | 1.3 | SSO | 345 | 0.2 |
| 27.02.2026 | 10:23 | 10.9 | 93 | 9.8 | 1018.3 | 1.8 | SO | 352 | 0.2 |
| 27.02.2026 | 10:28 | 11.1 | 92 | 9.8 | 1018.3 | 0.0 | OSO | 364 | 0.2 |
| 27.02.2026 | 10:33 | 11.3 | 92 | 10.0 | 1018.3 | 0.9 | OSO | 373 | 0.2 |
| 27.02.2026 | 10:38 | 11.5 | 91 | 10.1 | 1018.3 | 1.8 | OSO | 385 | 0.2 |
| 27.02.2026 | 10:43 | 11.7 | 91 | 10.3 | 1018.2 | 2.7 | S | 392 | 0.2 |
| 27.02.2026 | 10:48 | 11.8 | 90 | 10.2 | 1018.2 | 1.8 | SO | 404 | 0.2 |
| 27.02.2026 | 10:53 | 12.0 | 89 | 10.2 | 1018.2 | 0.9 | OSO | 415 | 0.2 |
| 27.02.2026 | 10:58 | 12.2 | 89 | 10.4 | 1018.2 | 0.9 | SSW | 425 | 0.2 |
| 27.02.2026 | 11:03 | 12.5 | 89 | 10.7 | 1018.2 | 0.0 | SSW | 438 | 0.2 |
| 27.02.2026 | 11:08 | 12.6 | 88 | 10.7 | 1018.2 | 0.9 | SSW | 446 | 0.2 |
| 27.02.2026 | 11:13 | 12.8 | 87 | 10.7 | 1018.1 | 0.4 | SSO | 452 | 0.2 |
| 27.02.2026 | 11:18 | 13.0 | 87 | 10.9 | 1018.1 | 3.1 | OSO | 461 | 0.2 |
| 27.02.2026 | 11:23 | 13.3 | 86 | 11.0 | 1018.1 | 0.9 | S | 466 | 0.2 |
| 27.02.2026 | 11:28 | 13.5 | 85 | 11.0 | 1018.0 | 0.9 | SO | 471 | 0.2 |
| 27.02.2026 | 11:33 | 13.8 | 85 | 11.3 | 1017.9 | 1.8 | SSW | 475 | 0.2 |
| 27.02.2026 | 11:38 | 14.0 | 84 | 11.3 | 1018.0 | 0.9 | OSO | 482 | 0.2 |
| 27.02.2026 | 11:43 | 14.2 | 83 | 11.4 | 1017.9 | 0.4 | SO | 485 | 0.2 |
| 27.02.2026 | 11:48 | 14.4 | 82 | 11.4 | 1017.9 | 0.4 | S | 490 | 0.2 |
| 27.02.2026 | 11:53 | 14.6 | 81 | 11.4 | 1017.8 | 0.9 | O | 494 | 0.2 |
| 27.02.2026 | 11:58 | 14.8 | 79 | 11.2 | 1017.8 | 1.3 | OSO | 497 | 0.2 |
| 27.02.2026 | 12:03 | 15.0 | 79 | 11.4 | 1017.7 | 0.9 | ONO | 501 | 0.2 |
| 27.02.2026 | 12:08 | 15.1 | 78 | 11.3 | 1017.7 | 1.3 | O | 503 | 0.2 |
| 27.02.2026 | 12:13 | 15.3 | 78 | 11.5 | 1017.6 | 0.4 | SSO | 506 | 0.2 |
| 27.02.2026 | 12:18 | 15.4 | 77 | 11.4 | 1017.6 | 0.0 | OSO | 508 | 0.2 |
| 27.02.2026 | 12:23 | 15.5 | 76 | 11.3 | 1017.5 | 0.9 | NO | 466 | 0.2 |
| 27.02.2026 | 12:28 | 15.6 | 76 | 11.4 | 1017.4 | 0.0 | SO | 107 | 0.2 |
| 27.02.2026 | 12:33 | 15.8 | 76 | 11.6 | 1017.4 | 3.1 | O | 144 | 0.2 |
| 27.02.2026 | 12:38 | 15.9 | 75 | 11.5 | 1017.4 | 1.3 | SSO | 512 | 0.2 |
| 27.02.2026 | 12:43 | 16.0 | 76 | 11.8 | 1017.2 | 2.2 | O | 510 | 0.2 |
| 27.02.2026 | 12:48 | 15.9 | 74 | 11.3 | 1017.0 | 0.9 | SO | 512 | 0.2 |
| 27.02.2026 | 12:53 | 15.9 | 74 | 11.3 | 1016.9 | 2.7 | O | 513 | 0.2 |
| 27.02.2026 | 12:59 | 16.0 | 74 | 11.4 | 1016.9 | 0.9 | O | 512 | 0.2 |
| 27.02.2026 | 13:04 | 16.1 | 74 | 11.5 | 1016.8 | 2.7 | O | 508 | 0.2 |
| 27.02.2026 | 13:14 | 16.4 | 73 | 11.5 | 1016.8 | 0.9 | ONO | 508 | 0.2 |
| 27.02.2026 | 13:24 | 16.5 | 73 | 11.6 | 1016.7 | 0.4 | SSO | 503 | 0.2 |
| 27.02.2026 | 13:29 | 16.7 | 72 | 11.6 | 1016.7 | 0.9 | OSO | 489 | 0.2 |
| 27.02.2026 | 13:39 | 17.1 | 69 | 11.4 | 1016.7 | 1.3 | SSW | 503 | 0.2 |
| 27.02.2026 | 13:44 | 17.3 | 68 | 11.3 | 1016.6 | 1.3 | WNW | 473 | 0.2 |
| 27.02.2026 | 13:54 | 17.5 | 67 | 11.3 | 1016.5 | 0.4 | SSW | 503 | 0.2 |
| 27.02.2026 | 13:59 | 17.6 | 67 | 11.4 | 1016.4 | 0.9 | SSO | 522 | 0.2 |
| 27.02.2026 | 14:04 | 17.5 | 66 | 11.1 | 1016.5 | 2.2 | SSW | 478 | 0.2 |
| 27.02.2026 | 14:09 | 17.5 | 66 | 11.1 | 1016.5 | 0.9 | SSW | 503 | 0.2 |
| 27.02.2026 | 14:14 | 17.6 | 67 | 11.4 | 1016.5 | 3.1 | S | 376 | 0.2 |
| 27.02.2026 | 14:19 | 17.8 | 66 | 11.4 | 1016.4 | 0.9 | S | 439 | 0.2 |
| 27.02.2026 | 14:24 | 17.8 | 64 | 10.9 | 1016.4 | 1.3 | SSO | 476 | 0.2 |
| 27.02.2026 | 14:29 | 17.8 | 63 | 10.7 | 1016.4 | 3.6 | S | 445 | 0.2 |
| 27.02.2026 | 14:34 | 17.6 | 64 | 10.7 | 1016.4 | 2.7 | WSW | 424 | 0.2 |
| 27.02.2026 | 14:39 | 17.5 | 65 | 10.8 | 1016.3 | 1.8 | SW | 429 | 0.2 |
| 27.02.2026 | 14:44 | 17.5 | 66 | 11.1 | 1016.2 | 4.0 | SW | 378 | 0.2 |
| 27.02.2026 | 14:49 | 17.5 | 66 | 11.1 | 1016.2 | 2.2 | WSW | 403 | 0.2 |
| 27.02.2026 | 14:54 | 17.7 | 66 | 11.3 | 1016.2 | 2.2 | WSW | 401 | 0.2 |
| 27.02.2026 | 15:04 | 17.7 | 66 | 11.3 | 1016.0 | 1.8 | SO | 118 | 0.2 |
| 27.02.2026 | 15:09 | 17.8 | 66 | 11.4 | 1015.9 | 1.8 | WSW | 380 | 0.2 |
| 27.02.2026 | 15:14 | 17.8 | 64 | 10.9 | 1016.0 | 1.8 | OSO | 371 | 0.2 |
| 27.02.2026 | 15:24 | 18.0 | 63 | 10.9 | 1016.0 | 1.8 | SW | 350 | 0.2 |
| 27.02.2026 | 15:29 | 18.1 | 62 | 10.7 | 1015.9 | 3.1 | S | 341 | 0.2 |
| 27.02.2026 | 15:34 | 18.1 | 61 | 10.5 | 1016.0 | 2.2 | SW | 334 | 0.2 |
| 27.02.2026 | 15:39 | 18.1 | 59 | 10.0 | 1016.0 | 2.7 | SSW | 320 | 0.2 |
| 27.02.2026 | 15:45 | 18.0 | 59 | 9.9 | 1016.0 | 2.2 | SSW | 311 | 0.2 |
| 27.02.2026 | 15:50 | 18.0 | 58 | 9.6 | 1016.1 | 4.0 | SW | 301 | 0.2 |
| 27.02.2026 | 15:55 | 17.8 | 58 | 9.4 | 1016.0 | 2.2 | SSW | 287 | 0.2 |
| 27.02.2026 | 16:00 | 17.7 | 59 | 9.6 | 1016.0 | 3.1 | O | 272 | 0.2 |
| 27.02.2026 | 16:05 | 17.6 | 60 | 9.7 | 1015.9 | 1.8 | SSW | 264 | 0.2 |
| 27.02.2026 | 16:10 | 17.6 | 57 | 9.0 | 1015.9 | 0.9 | S | 248 | 0.2 |
| 27.02.2026 | 16:15 | 17.6 | 58 | 9.2 | 1016.0 | 3.1 | SSW | 234 | 0.2 |
| 27.02.2026 | 16:20 | 17.5 | 59 | 9.4 | 1016.0 | 2.2 | WSW | 221 | 0.2 |
| 27.02.2026 | 16:25 | 17.5 | 57 | 8.9 | 1016.0 | 1.3 | S | 209 | 0.2 |
| 27.02.2026 | 16:30 | 17.4 | 59 | 9.3 | 1015.9 | 1.8 | S | 195 | 0.2 |
| 27.02.2026 | 16:35 | 17.4 | 59 | 9.3 | 1015.9 | 2.2 | SSO | 181 | 0.2 |
| 27.02.2026 | 16:40 | 17.3 | 59 | 9.2 | 1015.8 | 1.8 | SSW | 167 | 0.2 |
| 27.02.2026 | 16:45 | 17.2 | 60 | 9.4 | 1015.8 | 3.6 | SSW | 151 | 0.2 |
| 27.02.2026 | 16:50 | 17.1 | 61 | 9.5 | 1016.0 | 1.3 | WSW | 51 | 0.2 |
| 27.02.2026 | 16:55 | 16.9 | 61 | 9.3 | 1016.0 | 1.3 | SSW | 125 | 0.2 |
| 27.02.2026 | 17:00 | 16.8 | 62 | 9.5 | 1016.0 | 1.8 | SW | 113 | 0.2 |
| 27.02.2026 | 17:05 | 16.8 | 62 | 9.5 | 1016.0 | 1.8 | SW | 98 | 0.2 |
| 27.02.2026 | 17:10 | 16.8 | 63 | 9.7 | 1016.0 | 1.8 | SW | 88 | 0.2 |
| 27.02.2026 | 17:15 | 16.6 | 64 | 9.8 | 1016.0 | 1.8 | SSW | 69 | 0.2 |
| 27.02.2026 | 17:20 | 16.4 | 63 | 9.3 | 1016.0 | 0.9 | S | 62 | 0.2 |
| 27.02.2026 | 17:25 | 16.1 | 63 | 9.1 | 1016.0 | 1.3 | SSW | 49 | 0.2 |
| 27.02.2026 | 17:30 | 15.8 | 64 | 9.0 | 1016.1 | 1.3 | SW | 21 | 0.2 |
| 27.02.2026 | 17:35 | 15.5 | 65 | 8.9 | 1016.1 | 0.9 | SSW | 14 | 0.2 |
| 27.02.2026 | 17:40 | 15.1 | 67 | 9.0 | 1016.1 | 0.4 | SSW | 11 | 0.2 |
| 27.02.2026 | 17:45 | 14.8 | 69 | 9.2 | 1016.2 | 1.8 | SSW | 9 | 0.2 |
| 27.02.2026 | 17:50 | 14.4 | 70 | 9.0 | 1016.2 | 0.9 | SW | 7 | 0.2 |
| 27.02.2026 | 17:55 | 14.1 | 71 | 8.9 | 1016.3 | 0.4 | SW | 7 | 0.2 |
| 27.02.2026 | 18:00 | 13.8 | 72 | 8.8 | 1016.3 | 0.9 | SW | 5 | 0.2 |
| 27.02.2026 | 18:05 | 13.5 | 73 | 8.8 | 1016.3 | 0.4 | SW | 0 | 0.2 |
| 27.02.2026 | 18:10 | 13.3 | 74 | 8.8 | 1016.3 | 0.0 | SW | 0 | 0.2 |
| 27.02.2026 | 18:15 | 13.1 | 74 | 8.6 | 1016.2 | 0.0 | SW | 0 | 0.2 |
| 27.02.2026 | 18:20 | 12.9 | 75 | 8.6 | 1016.3 | 0.4 | SW | 0 | 0.2 |
| 27.02.2026 | 18:25 | 12.7 | 75 | 8.4 | 1016.4 | 0.4 | SW | 0 | 0.2 |
| 27.02.2026 | 18:30 | 12.5 | 76 | 8.4 | 1016.4 | 0.4 | SW | 0 | 0.2 |
| 27.02.2026 | 18:35 | 12.3 | 76 | 8.2 | 1016.3 | 0.4 | SW | 0 | 0.2 |
| 27.02.2026 | 18:41 | 12.1 | 77 | 8.2 | 1016.4 | 0.0 | SW | 0 | 0.2 |
| 27.02.2026 | 18:46 | 11.8 | 78 | 8.1 | 1016.5 | 0.0 | SW | 0 | 0.2 |
| 27.02.2026 | 18:51 | 11.6 | 79 | 8.1 | 1016.5 | 0.0 | SW | 0 | 0.2 |
| 27.02.2026 | 18:56 | 11.3 | 79 | 7.8 | 1016.4 | 0.4 | SW | 0 | 0.2 |
| 27.02.2026 | 19:01 | 11.0 | 80 | 7.7 | 1016.5 | 0.9 | WSW | 0 | 0.2 |
| 27.02.2026 | 19:06 | 10.8 | 81 | 7.7 | 1016.5 | 0.4 | SSW | 0 | 0.2 |
| 27.02.2026 | 19:11 | 10.8 | 82 | 7.9 | 1016.6 | 0.0 | SSW | 0 | 0.2 |
| 27.02.2026 | 19:16 | 10.6 | 82 | 7.7 | 1016.6 | 0.0 | SSW | 0 | 0.2 |
| 27.02.2026 | 19:21 | 10.5 | 82 | 7.6 | 1016.6 | 0.0 | SSW | 0 | 0.2 |
| 27.02.2026 | 19:26 | 10.4 | 83 | 7.6 | 1016.6 | 0.0 | SSW | 0 | 0.2 |
| 27.02.2026 | 19:31 | 10.3 | 83 | 7.5 | 1016.6 | 0.0 | SSW | 0 | 0.2 |
| 27.02.2026 | 19:36 | 10.2 | 84 | 7.6 | 1016.6 | 0.0 | SSW | 0 | 0.2 |
| 27.02.2026 | 19:41 | 10.2 | 85 | 7.8 | 1016.6 | 0.0 | SSW | 0 | 0.2 |
| 27.02.2026 | 19:46 | 10.2 | 85 | 7.8 | 1016.5 | 0.0 | SSW | 0 | 0.2 |
| 27.02.2026 | 19:51 | 10.3 | 85 | 7.9 | 1016.7 | 0.4 | SSW | 0 | 0.2 |
| 27.02.2026 | 19:56 | 10.3 | 86 | 8.1 | 1016.7 | 0.4 | SSW | 0 | 0.2 |
| 27.02.2026 | 20:01 | 10.6 | 86 | 8.4 | 1016.7 | 0.9 | S | 0 | 0.2 |
| 27.02.2026 | 20:06 | 10.9 | 85 | 8.5 | 1016.7 | 0.4 | SSO | 0 | 0.2 |
| 27.02.2026 | 20:11 | 11.1 | 84 | 8.5 | 1016.7 | 0.4 | SSO | 0 | 0.2 |
| 27.02.2026 | 20:16 | 11.3 | 84 | 8.7 | 1016.7 | 0.4 | SSO | 0 | 0.2 |
| 27.02.2026 | 20:21 | 11.4 | 83 | 8.6 | 1016.7 | 0.0 | SSO | 0 | 0.2 |
| 27.02.2026 | 20:26 | 11.4 | 83 | 8.6 | 1016.7 | 0.4 | SSO | 0 | 0.2 |
| 27.02.2026 | 20:31 | 11.3 | 83 | 8.5 | 1016.8 | 0.0 | SSO | 0 | 0.2 |
| 27.02.2026 | 20:36 | 11.1 | 83 | 8.3 | 1016.7 | 0.0 | SSO | 0 | 0.2 |
| 27.02.2026 | 20:41 | 11.0 | 83 | 8.2 | 1016.8 | 0.4 | SSO | 0 | 0.2 |
| 27.02.2026 | 20:46 | 10.9 | 83 | 8.1 | 1016.7 | 0.0 | SSO | 0 | 0.2 |
| 27.02.2026 | 20:51 | 10.8 | 83 | 8.0 | 1016.8 | 0.0 | SSO | 0 | 0.2 |
| 27.02.2026 | 20:56 | 10.6 | 84 | 8.0 | 1016.7 | 0.0 | SSO | 0 | 0.2 |
| 27.02.2026 | 21:01 | 10.5 | 84 | 7.9 | 1016.7 | 0.4 | SSO | 0 | 0.2 |
| 27.02.2026 | 21:06 | 10.3 | 84 | 7.7 | 1016.8 | 0.0 | SSO | 0 | 0.2 |
| 27.02.2026 | 21:11 | 10.1 | 84 | 7.5 | 1016.8 | 0.0 | SSO | 0 | 0.2 |
| 27.02.2026 | 21:16 | 10.0 | 85 | 7.6 | 1016.8 | 0.0 | SSO | 0 | 0.2 |
| 27.02.2026 | 21:22 | 9.9 | 85 | 7.5 | 1016.9 | 0.0 | SSO | 0 | 0.2 |
| 27.02.2026 | 21:27 | 9.8 | 86 | 7.6 | 1016.8 | 0.0 | SSO | 0 | 0.2 |
| 27.02.2026 | 21:32 | 9.8 | 86 | 7.6 | 1016.8 | 0.0 | SSO | 0 | 0.2 |
| 27.02.2026 | 21:37 | 9.7 | 86 | 7.5 | 1016.7 | 0.0 | SSO | 0 | 0.2 |
| 27.02.2026 | 21:42 | 9.6 | 87 | 7.5 | 1016.7 | 0.0 | SSO | 0 | 0.2 |
| 27.02.2026 | 21:47 | 9.6 | 87 | 7.5 | 1016.7 | 0.0 | SSO | 0 | 0.2 |
| 27.02.2026 | 21:52 | 9.6 | 87 | 7.5 | 1016.7 | 0.0 | SSO | 0 | 0.2 |
| 27.02.2026 | 21:57 | 9.6 | 87 | 7.5 | 1016.7 | 0.0 | SSO | 0 | 0.2 |
| 27.02.2026 | 22:02 | 9.5 | 87 | 7.4 | 1016.7 | 0.0 | SSO | 0 | 0.2 |
| 27.02.2026 | 22:07 | 9.5 | 87 | 7.4 | 1016.7 | 0.0 | SSO | 0 | 0.2 |
| 27.02.2026 | 22:12 | 9.5 | 87 | 7.4 | 1016.7 | 0.0 | SSO | 0 | 0.2 |
| 27.02.2026 | 22:17 | 9.6 | 88 | 7.7 | 1016.6 | 0.0 | SSO | 0 | 0.2 |
| 27.02.2026 | 22:22 | 9.6 | 88 | 7.7 | 1016.7 | 0.0 | SSO | 0 | 0.2 |
| 27.02.2026 | 22:27 | 9.5 | 88 | 7.6 | 1016.7 | 0.0 | SSO | 0 | 0.2 |
| 27.02.2026 | 22:32 | 9.5 | 88 | 7.6 | 1016.7 | 0.0 | SSO | 0 | 0.2 |
| 27.02.2026 | 22:37 | 9.4 | 88 | 7.5 | 1016.7 | 0.0 | SSO | 0 | 0.2 |
| 27.02.2026 | 22:42 | 9.3 | 88 | 7.4 | 1016.7 | 0.0 | SSO | 0 | 0.2 |
| 27.02.2026 | 22:47 | 9.2 | 88 | 7.3 | 1016.7 | 0.0 | SSO | 0 | 0.2 |
| 27.02.2026 | 22:52 | 9.1 | 88 | 7.2 | 1016.7 | 0.0 | SSO | 0 | 0.2 |
| 27.02.2026 | 22:57 | 9.0 | 88 | 7.1 | 1016.7 | 0.0 | SSO | 0 | 0.2 |
| 27.02.2026 | 23:02 | 8.9 | 88 | 7.0 | 1016.7 | 0.0 | SSO | 0 | 0.2 |
| 27.02.2026 | 23:07 | 8.8 | 88 | 6.9 | 1016.6 | 0.0 | SSO | 0 | 0.2 |
| 27.02.2026 | 23:12 | 8.8 | 88 | 6.9 | 1016.6 | 0.0 | SSO | 0 | 0.2 |
| 27.02.2026 | 23:17 | 8.8 | 89 | 7.1 | 1016.6 | 0.0 | SSO | 0 | 0.2 |
| 27.02.2026 | 23:22 | 8.7 | 89 | 7.0 | 1016.5 | 0.0 | SSO | 0 | 0.2 |
| 27.02.2026 | 23:27 | 8.6 | 89 | 6.9 | 1016.6 | 0.0 | SSO | 0 | 0.2 |
| 27.02.2026 | 23:32 | 8.6 | 89 | 6.9 | 1016.6 | 0.0 | SSO | 0 | 0.2 |
| 27.02.2026 | 23:37 | 8.5 | 89 | 6.8 | 1016.6 | 0.0 | SSO | 0 | 0.2 |
| 27.02.2026 | 23:42 | 8.5 | 89 | 6.8 | 1016.5 | 0.0 | SSO | 0 | 0.2 |
| 27.02.2026 | 23:47 | 8.4 | 89 | 6.7 | 1016.5 | 0.0 | SSO | 0 | 0.2 |
| 27.02.2026 | 23:52 | 8.4 | 89 | 6.7 | 1016.6 | 0.0 | SSO | 0 | 0.2 |
| 27.02.2026 | 23:57 | 8.3 | 90 | 6.8 | 1016.7 | 0.0 | SSO | 0 | 0.2 |